.
WxDataArchive / Data Records for 2011-06-07
2011-06-06 June 2011 2011-06-08

Data Records for Tuesday, 07 June 2011

Time	Temp	Chill	HIndex	Humid	Dewpt	 Wind 	HiWind	WindDir	Rain 	Barom 
-----	----	-----	------	-----	-----	------	------	-------	-----	----- 
00:00	76.1	76.1	78.0	63	62.6	0	1	248	0.00	29.878 
00:05	76.3	76.3	78.2	63	62.8	0	1	248	0.00	29.878 
00:10	76.5	76.5	78.3	63	62.9	0	0	---	0.00	29.878 
00:15	76.5	76.5	78.3	63	62.9	0	0	---	0.00	29.875 
00:20	76.5	76.5	78.3	63	62.9	0	1	248	0.00	29.875 
00:25	76.5	76.5	78.3	63	62.9	0	1	248	0.00	29.875 
00:30	76.5	76.5	78.3	63	62.9	0	1	248	0.00	29.876 
00:35	76.3	76.3	78.2	64	63.2	0	1	248	0.00	29.876 
00:40	76.3	76.3	78.2	64	63.2	0	1	248	0.00	29.876 
00:45	76.3	76.3	78.2	64	63.2	0	1	248	0.00	29.875 
00:50	76.1	76.1	78.0	64	63.0	0	1	248	0.00	29.875 
00:55	76.1	76.1	78.0	65	63.5	0	1	248	0.00	29.875 
01:00	76.0	76.0	77.9	65	63.4	0	0	---	0.00	29.874 
01:05	76.0	76.0	77.9	65	63.4	0	2	248	0.00	29.874 
01:10	76.0	76.0	77.9	65	63.4	0	1	248	0.00	29.874 
01:15	76.1	76.1	78.0	65	63.5	0	1	248	0.00	29.873 
01:20	76.0	76.0	77.8	66	63.8	0	1	248	0.00	29.873 
01:25	76.0	76.0	77.8	66	63.8	0	1	248	0.00	29.873 
01:30	76.0	76.0	77.8	66	63.8	0	1	248	0.00	29.872 
01:35	76.0	76.0	77.8	66	63.8	0	0	---	0.00	29.872 
01:40	76.0	76.0	77.8	67	64.2	0	0	---	0.00	29.872 
01:45	75.8	75.8	77.6	67	64.0	0	1	248	0.00	29.872 
01:50	75.8	75.8	77.6	67	64.0	0	0	---	0.00	29.872 
01:55	75.6	75.6	77.4	68	64.3	0	1	248	0.00	29.872 
02:00	75.6	75.6	77.4	68	64.3	0	0	---	0.00	29.871 
02:05	75.6	75.6	77.3	69	64.7	0	0	---	0.00	29.871 
02:10	75.6	75.6	77.3	69	64.7	0	0	---	0.00	29.871 
02:15	75.6	75.6	77.3	69	64.7	0	1	248	0.00	29.864 
02:20	75.4	75.4	77.1	69	64.5	0	1	248	0.00	29.864 
02:25	75.4	75.4	77.1	69	64.5	0	2	248	0.00	29.864 
02:30	75.6	75.6	77.3	69	64.7	0	2	248	0.00	29.860 
02:35	75.6	75.6	77.3	69	64.7	0	1	248	0.00	29.860 
02:40	75.8	75.8	77.5	69	64.9	0	2	248	0.00	29.860 
02:45	75.8	75.8	77.5	69	64.9	0	3	248	0.00	29.862 
02:50	76.0	76.0	77.7	69	65.1	0	1	248	0.00	29.862 
02:55	75.8	75.8	77.5	69	64.9	0	2	248	0.00	29.862 
03:00	75.8	75.8	77.5	69	64.9	0	2	248	0.00	29.863 
03:05	76.0	76.0	77.7	69	65.1	0	2	248	0.00	29.863 
03:10	76.0	76.0	77.7	69	65.1	0	1	248	0.00	29.863 
03:15	76.0	76.0	77.7	69	65.1	1	3	292	0.00	29.864 
03:20	76.0	76.0	77.7	68	64.7	1	4	248	0.00	29.864 
03:25	76.1	76.1	77.8	68	64.8	0	2	248	0.00	29.864 
03:30	76.1	76.1	77.8	68	64.8	0	1	248	0.00	29.862 
03:35	76.1	76.1	77.8	68	64.8	0	4	270	0.00	29.862 
03:40	76.0	76.0	77.7	68	64.7	0	1	270	0.00	29.862 
03:45	76.0	76.0	77.7	69	65.1	0	3	270	0.00	29.861 
03:50	76.0	76.0	77.7	69	65.1	0	2	270	0.00	29.861 
03:55	76.0	76.0	77.7	69	65.1	0	3	270	0.00	29.861 
04:00	76.0	76.0	77.7	69	65.1	0	2	202	0.00	29.860 
04:05	76.0	76.0	77.7	69	65.1	0	2	202	0.00	29.860 
04:10	75.8	75.8	77.5	69	64.9	0	2	202	0.00	29.860 
04:15	75.8	75.8	77.5	69	64.9	0	3	248	0.00	29.859 
04:20	75.8	75.8	77.5	69	64.9	0	2	248	0.00	29.859 
04:25	75.8	75.8	77.4	70	65.3	0	2	248	0.00	29.859 
04:30	75.8	75.8	77.4	70	65.3	0	2	248	0.00	29.857 
04:35	75.8	75.8	77.4	70	65.3	0	4	248	0.00	29.857 
04:40	75.6	75.6	77.2	70	65.1	1	3	292	0.00	29.857 
04:45	75.6	75.6	77.2	70	65.1	1	3	248	0.00	29.852 
04:50	75.6	75.6	77.2	71	65.5	0	1	248	0.00	29.852 
04:55	75.6	75.6	77.2	71	65.5	1	4	248	0.00	29.852 
05:00	75.6	75.6	77.2	71	65.5	0	2	248	0.00	29.847 
05:05	75.4	75.4	76.9	72	65.7	0	3	248	0.00	29.847 
05:10	75.4	75.4	76.9	72	65.7	0	2	248	0.00	29.847 
05:15	75.4	75.4	76.9	72	65.7	0	2	248	0.00	29.845 
05:20	75.3	75.3	76.7	73	66.0	0	2	248	0.00	29.845 
05:25	75.3	75.3	76.7	73	66.0	0	3	248	0.00	29.845 
05:30	75.3	75.3	76.7	73	66.0	1	4	270	0.00	29.844 
05:35	75.4	75.4	76.8	73	66.1	0	2	270	0.00	29.844 
05:40	75.4	75.4	76.8	73	66.1	0	2	270	0.00	29.844 
05:45	75.4	75.4	76.8	73	66.1	1	3	270	0.00	29.844 
05:50	75.4	75.4	76.8	73	66.1	0	2	270	0.00	29.844 
05:55	75.3	75.3	76.6	74	66.4	0	2	270	0.00	29.844 
06:00	75.3	75.3	76.6	74	66.4	0	2	270	0.00	29.844 
06:05	75.3	75.3	76.6	74	66.4	0	2	292	0.00	29.844 
06:10	75.3	75.3	76.6	74	66.4	0	1	292	0.00	29.844 
06:15	75.1	75.1	76.4	74	66.2	0	2	292	0.00	29.844 
06:20	75.1	75.1	76.3	75	66.6	0	3	292	0.00	29.844 
06:25	75.1	75.1	76.3	75	66.6	0	2	292	0.00	29.844 
06:30	75.1	75.1	76.3	75	66.6	0	3	292	0.00	29.843 
06:35	75.3	75.3	76.5	75	66.8	1	2	292	0.00	29.843 
06:40	75.4	75.4	76.6	75	66.9	1	2	292	0.00	29.843 
06:45	75.6	75.6	77.0	74	66.7	1	3	292	0.00	29.844 
06:50	75.8	75.8	77.2	74	66.9	1	5	292	0.00	29.844 
06:55	76.0	76.0	77.4	74	67.1	1	3	292	0.00	29.844 
07:00	76.1	76.1	77.6	73	66.8	0	2	292	0.00	29.845 
07:05	76.3	76.3	77.8	73	67.0	1	4	292	0.00	29.845 
07:10	76.5	76.5	78.1	73	67.2	1	3	292	0.00	29.845 
07:15	76.5	76.5	78.1	73	67.2	1	4	292	0.00	29.852 
07:20	76.7	76.7	78.3	73	67.4	1	3	270	0.00	29.852 
07:25	76.7	76.7	78.3	73	67.4	1	4	292	0.00	29.852 
07:30	76.7	76.7	78.3	73	67.4	1	5	292	0.00	29.853 
07:35	76.8	76.8	78.5	73	67.5	2	7	270	0.00	29.853 
07:40	76.8	76.8	78.5	73	67.5	2	7	270	0.00	29.853 
07:45	77.0	77.0	78.7	73	67.7	1	3	270	0.00	29.856 
07:50	77.2	77.2	79.0	73	67.9	1	3	292	0.00	29.856 
07:55	77.2	77.2	79.0	73	67.9	1	5	292	0.00	29.856 
08:00	77.4	77.4	79.3	73	68.0	1	4	270	0.00	29.860 
08:05	77.6	77.6	79.5	73	68.2	1	3	292	0.00	29.860 
08:10	77.9	77.9	79.9	72	68.1	2	5	270	0.00	29.860 
08:15	77.9	77.9	79.9	72	68.1	1	4	270	0.00	29.863 
08:20	78.1	78.1	80.2	72	68.3	2	4	270	0.00	29.863 
08:25	78.3	78.3	80.5	71	68.1	2	4	270	0.00	29.863 
08:30	78.6	78.6	81.0	72	68.8	1	3	315	0.00	29.867 
08:35	78.8	78.8	81.2	71	68.6	2	5	270	0.00	29.867 
08:40	79.0	79.0	81.5	71	68.8	2	6	270	0.00	29.867 
08:45	79.2	79.2	81.7	70	68.5	2	6	270	0.00	29.873 
08:50	79.6	79.6	82.2	69	68.5	2	4	270	0.00	29.873 
08:55	79.8	79.8	82.5	69	68.7	2	5	248	0.00	29.873 
09:00	79.9	79.9	82.7	69	68.8	2	4	270	0.00	29.871 
09:05	80.1	80.1	83.0	69	69.0	3	6	270	0.00	29.871 
09:10	80.3	80.3	83.3	69	69.2	2	3	248	0.00	29.871 
09:15	80.7	80.7	83.5	66	68.3	2	5	270	0.00	29.874 
09:20	80.9	80.9	84.1	68	69.3	3	6	270	0.00	29.874 
09:25	80.9	80.9	84.1	68	69.3	3	6	270	0.00	29.874 
09:30	81.1	81.1	84.5	68	69.5	3	6	270	0.00	29.875 
09:35	81.6	81.6	85.3	68	70.0	2	5	292	0.00	29.875 
09:40	81.8	81.8	85.5	67	69.7	3	5	270	0.00	29.875 
09:45	82.0	82.0	85.6	66	69.5	2	5	270	0.00	29.878 
09:50	82.2	82.2	85.9	66	69.7	2	5	270	0.00	29.878 
09:55	82.6	82.6	86.4	65	69.6	2	7	270	0.00	29.878 
10:00	82.6	82.6	86.4	65	69.6	3	9	270	0.00	29.878 
10:05	82.8	82.8	86.7	65	69.8	3	5	270	0.00	29.878 
10:10	83.0	83.0	86.9	64	69.5	3	7	270	0.00	29.878 
10:15	83.4	83.4	87.8	65	70.4	2	5	270	0.00	29.883 
10:20	83.8	83.8	88.3	64	70.3	2	5	270	0.00	29.883 
10:25	84.0	84.0	88.6	64	70.5	2	4	270	0.00	29.883 
10:30	84.3	84.3	88.9	63	70.3	2	6	270	0.00	29.882 
10:35	84.5	84.5	89.0	62	70.0	3	5	270	0.00	29.882 
10:40	84.7	84.7	89.3	62	70.2	2	4	292	0.00	29.882 
10:45	85.1	85.1	90.1	62	70.6	2	5	270	0.00	29.881 
10:50	85.1	85.1	89.4	60	69.6	3	6	292	0.00	29.881 
10:55	85.5	85.5	90.8	62	71.0	1	4	270	0.00	29.881 
11:00	85.9	85.9	91.3	61	70.9	1	3	270	0.00	29.877 
11:05	86.1	86.1	91.3	60	70.6	2	5	292	0.00	29.877 
11:10	86.1	86.1	90.9	59	70.1	3	6	270	0.00	29.877 
11:15	86.1	86.1	90.9	59	70.1	2	6	270	0.00	29.879 
11:20	86.3	86.3	91.3	59	70.2	2	5	270	0.00	29.879 
11:25	86.7	86.7	91.7	58	70.1	2	4	315	0.00	29.879 
11:30	87.0	87.0	92.3	58	70.4	2	4	270	0.00	29.881 
11:35	87.0	87.0	92.3	58	70.4	3	5	270	0.00	29.881 
11:40	87.2	87.2	92.7	58	70.6	1	3	270	0.00	29.881 
11:45	87.4	87.4	93.5	59	71.3	1	4	338	0.00	29.887 
11:50	87.6	87.6	92.6	56	69.9	2	5	248	0.00	29.887 
11:55	88.0	88.0	93.8	57	70.8	1	3	338	0.00	29.887 
12:00	88.2	88.2	94.2	57	71.0	1	3	315	0.00	29.887 
12:05	88.4	88.4	94.2	56	70.7	2	3	338	0.00	29.887 
12:10	88.6	88.6	94.1	55	70.3	1	4	338	0.00	29.887 
12:15	88.6	88.6	94.1	55	70.3	1	3	270	0.00	29.891 
12:20	88.4	88.4	93.3	54	69.6	1	4	270	0.00	29.891 
12:25	88.8	88.8	94.5	55	70.5	1	3	270	0.00	29.891 
12:30	89.0	89.0	96.8	59	72.8	1	3	270	0.00	29.889 
12:35	89.3	89.3	94.6	53	69.9	1	2	270	0.00	29.889 
12:40	89.5	89.5	95.9	55	71.2	1	3	270	0.00	29.889 
12:45	89.5	89.5	95.5	54	70.6	1	4	270	0.00	29.885 
12:50	89.7	89.7	95.9	54	70.8	1	4	270	0.00	29.885 
12:55	89.9	89.9	96.8	55	71.5	0	2	292	0.00	29.885 
13:00	90.3	90.3	96.1	52	70.2	1	3	292	0.00	29.884 
13:05	90.5	90.5	96.0	51	69.9	1	3	292	0.00	29.884 
13:10	90.5	90.5	96.5	52	70.4	1	4	270	0.00	29.884 
13:15	90.5	90.5	97.0	53	71.0	1	3	270	0.00	29.878 
13:20	90.5	90.5	96.0	51	69.9	1	3	270	0.00	29.878 
13:25	90.7	90.7	96.4	51	70.0	2	3	292	0.00	29.878 
13:30	91.0	91.0	98.6	54	72.0	0	2	315	0.00	29.873 
13:35	91.2	91.2	97.4	51	70.5	0	1	315	0.00	29.873 
13:40	91.4	91.4	97.3	50	70.1	0	2	315	0.00	29.873 
13:45	91.6	91.6	97.2	49	69.7	1	3	315	0.00	29.870 
13:50	91.8	91.8	97.6	49	69.9	1	3	248	0.00	29.870 
13:55	91.8	91.8	97.6	49	69.9	1	3	248	0.00	29.870 
14:00	91.8	91.8	97.6	49	69.9	1	3	248	0.00	29.867 
14:05	92.1	92.1	98.8	50	70.7	1	5	248	0.00	29.867 
14:10	92.1	92.1	97.7	48	69.5	1	3	315	0.00	29.867 
14:15	92.3	92.3	97.0	46	68.5	1	3	315	0.00	29.862 
14:20	92.5	92.5	99.6	50	71.1	1	3	315	0.00	29.862 
14:25	93.2	93.2	100.5	49	71.1	1	2	338	0.00	29.862 
14:30	93.2	93.2	97.7	44	68.0	1	4	315	0.00	29.857 
14:35	92.9	92.9	97.2	44	67.7	1	3	315	0.00	29.857 
14:40	93.2	93.2	96.7	42	66.6	2	5	315	0.00	29.857 
14:45	93.4	93.4	97.6	43	67.5	2	5	292	0.00	29.852 
14:50	93.4	93.4	97.1	42	66.8	2	4	292	0.00	29.852 
14:55	93.2	93.2	96.7	42	66.6	1	3	292	0.00	29.852 
15:00	93.6	93.6	98.0	43	67.7	1	5	315	0.00	29.847 
15:05	93.8	93.8	96.3	39	65.0	2	5	270	0.00	29.847 
15:10	94.5	94.5	95.7	35	62.6	2	4	292	0.00	29.847 
15:15	94.7	94.7	96.9	37	64.3	1	3	270	0.00	29.844 
15:20	94.9	94.9	96.3	35	62.9	2	4	270	0.00	29.844 
15:25	94.9	94.9	96.3	35	62.9	2	3	292	0.00	29.844 
15:30	94.9	94.9	96.3	35	62.9	1	4	270	0.00	29.842 
15:35	95.1	95.1	96.2	34	62.3	2	5	270	0.00	29.842 
15:40	95.6	95.6	99.0	38	65.9	1	2	270	0.00	29.842 
15:45	95.9	95.9	98.0	35	63.8	2	4	270	0.00	29.838 
15:50	95.6	95.6	98.0	36	64.3	1	4	270	0.00	29.838 
15:55	95.9	95.9	97.5	34	63.0	2	4	270	0.00	29.838 
16:00	95.9	95.9	97.5	34	63.0	2	4	270	0.00	29.835 
16:05	95.9	95.9	98.0	35	63.8	2	4	315	0.00	29.835 
16:10	95.9	95.9	96.6	32	61.2	2	5	270	0.00	29.835 
16:15	96.1	96.1	97.4	33	62.3	1	3	270	0.00	29.832 
16:20	96.1	96.1	99.4	37	65.6	2	4	315	0.00	29.832 
16:25	96.1	96.1	100.5	39	67.1	2	4	292	0.00	29.832 
16:30	95.9	95.9	100.1	39	66.9	1	3	292	0.00	29.829 
16:35	96.1	96.1	100.5	39	67.1	1	4	270	0.00	29.829 
16:40	95.9	95.9	100.7	40	67.6	2	5	270	0.00	29.829 
16:45	95.6	95.6	99.6	39	66.6	1	4	315	0.00	29.829 
16:50	95.6	95.6	100.1	40	67.4	1	5	292	0.00	29.829 
16:55	95.4	95.4	99.2	39	66.5	2	5	248	0.00	29.829 
17:00	95.1	95.1	98.6	39	66.2	1	3	248	0.00	29.832 
17:05	95.1	95.1	98.1	38	65.4	1	5	270	0.00	29.832 
17:10	95.4	95.4	98.7	38	65.7	1	5	248	0.00	29.832 
17:15	95.1	95.1	97.1	36	63.9	2	5	248	0.00	29.835 
17:20	95.1	95.1	96.2	34	62.3	2	6	270	0.00	29.835 
17:25	95.1	95.1	96.2	34	62.3	2	5	270	0.00	29.835 
17:30	95.1	95.1	95.3	32	60.5	1	4	292	0.00	29.836 
17:35	95.1	95.1	94.9	31	59.7	1	4	270	0.00	29.836 
17:40	95.1	95.1	96.2	34	62.3	1	4	270	0.00	29.836 
17:45	95.1	95.1	96.2	34	62.3	1	3	270	0.00	29.835 
17:50	95.1	95.1	95.3	32	60.5	1	5	270	0.00	29.835 
17:55	94.9	94.9	95.5	33	61.2	2	6	270	0.00	29.835 
18:00	94.5	94.5	95.7	35	62.6	1	2	292	0.00	29.833 
18:05	94.3	94.3	96.3	37	64.0	1	3	292	0.00	29.833 
18:10	94.0	94.0	95.8	37	63.7	1	4	292	0.00	29.833 
18:15	93.6	93.6	96.0	39	64.9	1	3	292	0.00	29.829 
18:20	93.4	93.4	95.2	38	63.9	1	4	315	0.00	29.829 
18:25	93.2	93.2	94.9	38	63.8	1	4	270	0.00	29.829 
18:30	92.9	92.9	95.3	40	65.0	2	4	270	0.00	29.830 
18:35	92.7	92.7	95.4	41	65.5	2	4	270	0.00	29.830 
18:40	92.7	92.7	95.4	41	65.5	1	4	248	0.00	29.830 
18:45	92.5	92.5	94.6	40	64.6	1	3	248	0.00	29.824 
18:50	92.5	92.5	94.6	40	64.6	2	4	270	0.00	29.824 
18:55	92.3	92.3	93.8	39	63.7	2	6	270	0.00	29.824 
19:00	92.3	92.3	93.8	39	63.7	2	4	270	0.00	29.827 
19:05	92.1	92.1	93.1	38	62.8	2	5	270	0.00	29.827 
19:10	91.8	91.8	93.1	39	63.3	2	5	270	0.00	29.827 
19:15	91.8	91.8	93.1	39	63.3	2	4	292	0.00	29.828 
19:20	91.8	91.8	93.4	40	64.0	1	3	292	0.00	29.828 
19:25	91.6	91.6	93.5	41	64.5	1	4	248	0.00	29.828 
19:30	91.6	91.6	93.9	42	65.2	1	4	292	0.00	29.828 
19:35	91.4	91.4	93.2	41	64.3	1	4	270	0.00	29.828 
19:40	91.2	91.2	93.3	42	64.9	1	3	270	0.00	29.828 
19:45	91.0	91.0	93.4	43	65.4	0	3	270	0.00	29.833 
19:50	90.7	90.7	92.9	43	65.1	1	3	270	0.00	29.833 
19:55	90.5	90.5	92.5	43	64.9	1	3	270	0.00	29.833 
20:00	90.3	90.3	92.2	43	64.7	1	3	270	0.00	29.839 
20:05	90.1	90.1	92.3	44	65.2	1	4	270	0.00	29.839 
20:10	89.9	89.9	91.9	44	65.0	1	3	270	0.00	29.839 
20:15	89.9	89.9	91.9	44	65.0	0	2	270	0.00	29.837 
20:20	89.5	89.5	91.7	45	65.3	0	2	270	0.00	29.837 
20:25	89.3	89.3	91.4	45	65.1	1	3	270	0.00	29.837 
20:30	89.0	89.0	90.9	45	64.9	0	2	270	0.00	29.838 
20:35	88.8	88.8	90.6	45	64.7	1	2	270	0.00	29.838 
20:40	88.6	88.6	90.6	46	65.1	0	3	270	0.00	29.838 
20:45	88.2	88.2	90.0	46	64.8	0	1	270	0.00	29.841 
20:50	88.0	88.0	89.7	46	64.6	0	2	270	0.00	29.841 
20:55	87.8	87.8	89.4	46	64.4	0	2	270	0.00	29.841 
21:00	87.6	87.6	89.4	47	64.8	0	2	270	0.00	29.838 
21:05	87.4	87.4	89.4	48	65.3	0	1	270	0.00	29.838 
21:10	87.0	87.0	88.8	48	64.9	0	2	270	0.00	29.838 
21:15	86.7	86.7	88.6	49	65.2	0	1	270	0.00	29.836 
21:20	86.3	86.3	88.0	49	64.9	0	1	270	0.00	29.836 
21:25	86.1	86.1	88.0	50	65.3	0	1	270	0.00	29.836 
21:30	85.7	85.7	87.7	51	65.5	0	1	270	0.00	29.838 
21:35	85.5	85.5	87.2	50	64.7	0	2	270	0.00	29.838 
21:40	85.5	85.5	87.2	50	64.7	1	7	225	0.00	29.838 
21:45	85.5	85.5	87.2	50	64.7	1	3	225	0.00	29.839 
21:50	85.5	85.5	87.2	50	64.7	0	2	292	0.00	29.839 
21:55	85.3	85.3	86.9	50	64.5	0	3	248	0.00	29.839 
22:00	85.3	85.3	86.6	49	63.9	0	3	248	0.00	29.843 
22:05	85.1	85.1	86.6	50	64.3	0	2	248	0.00	29.843 
22:10	84.9	84.9	86.3	50	64.2	0	2	248	0.00	29.843 
22:15	84.5	84.5	85.8	50	63.8	0	1	248	0.00	29.842 
22:20	84.3	84.3	85.5	50	63.6	0	2	248	0.00	29.842 
22:25	84.3	84.3	85.7	51	64.2	0	3	248	0.00	29.842 
22:30	84.1	84.1	85.7	52	64.5	0	1	270	0.00	29.843 
22:35	84.1	84.1	85.7	52	64.5	0	2	270	0.00	29.843 
22:40	84.0	84.0	85.6	52	64.4	1	2	270	0.00	29.843 
22:45	84.1	84.1	85.7	52	64.5	0	2	270	0.00	29.846 
22:50	84.0	84.0	85.6	52	64.4	0	2	270	0.00	29.846 
22:55	84.0	84.0	85.8	53	65.0	0	1	270	0.00	29.846 
23:00	83.8	83.8	85.5	53	64.8	0	3	270	0.00	29.847 
23:05	83.8	83.8	85.5	53	64.8	0	2	270	0.00	29.847 
23:10	83.6	83.6	85.2	53	64.6	0	1	270	0.00	29.847 
23:15	83.4	83.4	85.2	54	65.0	0	1	270	0.00	29.848 
23:20	83.2	83.2	84.9	54	64.8	0	1	270	0.00	29.848 
23:25	83.2	83.2	84.9	54	64.8	0	2	270	0.00	29.848 
23:30	83.2	83.2	84.9	54	64.8	0	1	270	0.00	29.850 
23:35	83.0	83.0	84.7	54	64.6	0	1	270	0.00	29.850 
23:40	82.8	82.8	84.4	54	64.4	0	1	270	0.00	29.850 
23:45	83.0	83.0	84.7	54	64.6	0	3	270	0.00	29.852 
23:50	82.8	82.8	84.4	54	64.4	0	1	270	0.00	29.852 
23:55	82.6	82.6	84.1	54	64.2	0	1	270	0.00	29.852 

CoCoRaHS
IN-AL-39
A2 Web Hosting
Creative Commons License
GoDaddy
search engine by freefind advanced

loaded 2018-11-15 16:31:48 • last modified 2010-11-18 10:43:29
Privacy PolicyDisclaimer
• wx.awcolley.com is powered by PmWiki v.2002016 •
• all content (unless otherwise noted) © 2018 A W Colley